Time;durP1;ratioP1;P1;durP2;ratioP2;P2;SDS_P1;SDS_P2;PMS_P1;PMS_P2;Temp;Humidity;BMP_temperature;BMP_pressure;BME280_temperature;BME280_humidity;BME280_pressure;Samples;Min_cycle;Max_cycle;Signal;HPM_P1;HPM_P2
2022/10/28 00:01:04;;;;;;;18.30;10.63;;;;;;;;;;5054248;28;20480;-80
2022/10/28 00:03:30;;;;;;;19.10;10.88;;;;;;;;;;5043932;28;20462;-80
2022/10/28 00:06:03;;;;;;;18.55;11.48;;;;;;;;;;5056324;28;20422;-80
2022/10/28 00:08:29;;;;;;;14.68;10.50;;;;;;;;;;5073117;28;20406;-80
2022/10/28 00:11:06;;;;;;;17.67;10.35;;;;;;;;;;5073584;28;20414;-80
2022/10/28 00:13:32;;;;;;;16.47;10.50;;;;;;;;;;5068511;28;20426;-80
2022/10/28 00:16:05;;;;;;;14.70;10.10;;;;;;;;;;5068148;28;20468;-80
2022/10/28 00:18:31;;;;;;;19.17;10.10;;;;;;;;;;5046600;28;20416;-80
2022/10/28 00:21:01;;;;;;;18.17;10.15;;;;;;;;;;5046927;28;20432;-80
2022/10/28 00:23:27;;;;;;;21.77;10.40;;;;;;;;;;5052066;28;20495;-80
2022/10/28 00:25:53;;;;;;;13.40;8.23;;;;;;;;;;5077974;28;20175;-90
2022/10/28 00:28:19;;;;;;;13.50;8.67;;;;;;;;;;5041509;28;20175;-90
2022/10/28 00:30:45;;;;;;;13.90;8.93;;;;;;;;;;5042992;28;20179;-90
2022/10/28 00:33:11;;;;;;;15.90;10.23;;;;;;;;;;5080726;28;20406;-91
2022/10/28 00:35:37;;;;;;;20.17;10.82;;;;;;;;;;5063383;28;20417;-91
2022/10/28 00:38:03;;;;;;;18.23;10.20;;;;;;;;;;5062911;28;20434;-91
2022/10/28 00:40:33;;;;;;;16.40;9.85;;;;;;;;;;5046549;28;20434;-78
2022/10/28 00:42:59;;;;;;;16.75;11.43;;;;;;;;;;5058143;28;20410;-78
2022/10/28 00:45:25;;;;;;;20.60;10.57;;;;;;;;;;5041870;28;20441;-77
2022/10/28 00:48:01;;;;;;;16.00;10.27;;;;;;;;;;5039413;28;20428;-77
2022/10/28 00:50:27;;;;;;;15.05;10.75;;;;;;;;;;5050259;28;20430;-77
2022/10/28 00:52:56;;;;;;;16.83;10.85;;;;;;;;;;5072455;28;20507;-77
2022/10/28 00:55:22;;;;;;;17.35;10.07;;;;;;;;;;5067379;28;20418;-77
2022/10/28 00:57:49;;;;;;;14.68;10.57;;;;;;;;;;5043273;28;20417;-77
2022/10/28 01:00:15;;;;;;;18.65;10.50;;;;;;;;;;5041566;28;20433;-77
2022/10/28 01:02:45;;;;;;;17.83;11.00;;;;;;;;;;5061198;28;20432;-77
2022/10/28 01:05:13;;;;;;;15.32;10.73;;;;;;;;;;5042285;28;20425;-77
2022/10/28 01:07:39;;;;;;;15.68;10.98;;;;;;;;;;5038035;28;20419;-77
2022/10/28 01:10:05;;;;;;;14.50;11.02;;;;;;;;;;5036941;28;20424;-77
2022/10/28 01:12:37;;;;;;;14.95;10.88;;;;;;;;;;5051368;28;20439;-78
2022/10/28 01:15:14;;;;;;;13.85;10.82;;;;;;;;;;5053884;28;20412;-81
2022/10/28 01:17:40;;;;;;;17.88;12.18;;;;;;;;;;5041351;28;20455;-81
2022/10/28 01:20:09;;;;;;;15.33;9.97;;;;;;;;;;5037101;28;20258;-81
2022/10/28 01:22:52;;;;;;;15.27;9.73;;;;;;;;;;5060550;28;20200;-81
2022/10/28 01:25:27;;;;;;;19.60;9.93;;;;;;;;;;5038366;28;20188;-81
2022/10/28 01:28:02;;;;;;;13.93;9.50;;;;;;;;;;5046466;28;20207;-81
2022/10/28 01:30:33;;;;;;;15.30;10.00;;;;;;;;;;5042916;28;20237;-78
2022/10/28 01:33:29;;;;;;;16.20;9.37;;;;;;;;;;5054488;28;20216;-77
2022/10/28 01:35:58;;;;;;;16.33;10.27;;;;;;;;;;5049921;28;20203;-78
2022/10/28 01:38:27;;;;;;;14.40;10.20;;;;;;;;;;5073274;28;20544;-77
2022/10/28 01:41:02;;;;;;;19.37;9.83;;;;;;;;;;5053434;28;20205;-77
2022/10/28 01:43:46;;;;;;;17.83;11.35;;;;;;;;;;5044336;28;20453;-77
2022/10/28 01:46:21;;;;;;;16.87;10.33;;;;;;;;;;5041832;28;20200;-77
2022/10/28 01:48:50;;;;;;;15.53;10.43;;;;;;;;;;5063136;28;20206;-77
2022/10/28 01:51:19;;;;;;;19.55;12.93;;;;;;;;;;5035313;28;20460;-77
2022/10/28 01:53:47;;;;;;;16.20;10.70;;;;;;;;;;5061742;28;20175;-77
2022/10/28 01:56:16;;;;;;;15.87;9.80;;;;;;;;;;5053048;28;20184;-77
2022/10/28 01:58:42;;;;;;;19.73;13.10;;;;;;;;;;5073970;28;20414;-77
2022/10/28 02:01:09;;;;;;;17.30;11.07;;;;;;;;;;5037283;28;20229;-77
2022/10/28 02:03:35;;;;;;;19.13;11.60;;;;;;;;;;5025556;28;20623;-81
2022/10/28 02:06:04;;;;;;;18.53;10.20;;;;;;;;;;5050793;28;20186;-81
2022/10/28 02:08:39;;;;;;;14.87;10.07;;;;;;;;;;5066929;28;20188;-77
2022/10/28 02:11:11;;;;;;;16.00;10.30;;;;;;;;;;5059910;28;20182;-78
2022/10/28 02:13:37;;;;;;;13.93;10.13;;;;;;;;;;5074107;28;20186;-78
2022/10/28 02:16:27;;;;;;;17.27;10.47;;;;;;;;;;5052267;28;20198;-77
2022/10/28 02:18:59;;;;;;;17.80;9.97;;;;;;;;;;5067835;28;20195;-78
2022/10/28 02:21:32;;;;;;;16.63;10.27;;;;;;;;;;5061204;28;20233;-77
2022/10/28 02:24:04;;;;;;;17.60;11.25;;;;;;;;;;5052373;28;20414;-77
2022/10/28 02:26:34;;;;;;;21.00;10.33;;;;;;;;;;5038463;28;20195;-77
2022/10/28 02:29:04;;;;;;;20.23;11.75;;;;;;;;;;5040835;28;20412;-77
2022/10/28 02:31:39;;;;;;;17.60;10.73;;;;;;;;;;5075048;28;20178;-77
2022/10/28 02:34:15;;;;;;;20.57;12.07;;;;;;;;;;5055560;28;20422;-78
2022/10/28 02:36:43;;;;;;;13.88;10.27;;;;;;;;;;5064795;28;20373;-80
2022/10/28 02:39:10;;;;;;;18.17;11.80;;;;;;;;;;5050567;28;20412;-90
2022/10/28 02:41:43;;;;;;;19.02;11.88;;;;;;;;;;5059465;28;20448;-90
2022/10/28 02:44:11;;;;;;;13.53;10.07;;;;;;;;;;5077419;28;20206;-89
2022/10/28 02:46:39;;;;;;;18.30;10.23;;;;;;;;;;5073489;28;20210;-90
2022/10/28 02:49:10;;;;;;;16.67;10.80;;;;;;;;;;5043509;28;20176;-90
2022/10/28 02:51:39;;;;;;;17.03;10.30;;;;;;;;;;5070777;28;20176;-90
2022/10/28 02:54:09;;;;;;;20.10;12.98;;;;;;;;;;5049088;28;20418;-81
2022/10/28 02:56:41;;;;;;;14.43;10.43;;;;;;;;;;5040071;28;20180;-80
2022/10/28 02:59:11;;;;;;;17.53;10.03;;;;;;;;;;5036546;28;20172;-80
2022/10/28 03:01:38;;;;;;;18.03;12.20;;;;;;;;;;5062300;28;20424;-80
2022/10/28 03:04:04;;;;;;;16.13;11.82;;;;;;;;;;5039716;28;20359;-80
2022/10/28 03:06:30;;;;;;;18.27;10.33;;;;;;;;;;5043934;28;20190;-81
2022/10/28 03:08:56;;;;;;;20.33;12.43;;;;;;;;;;5039934;28;20463;-80
2022/10/28 03:11:22;;;;;;;17.75;11.90;;;;;;;;;;5059084;28;20495;-91
2022/10/28 03:13:48;;;;;;;16.93;10.27;;;;;;;;;;5061798;28;20179;-91
2022/10/28 03:16:14;;;;;;;15.40;10.83;;;;;;;;;;5045178;28;20274;-90
2022/10/28 03:18:40;;;;;;;17.97;10.40;;;;;;;;;;5045256;28;20199;-90
2022/10/28 03:21:06;;;;;;;15.43;10.13;;;;;;;;;;5061725;28;20278;-90
2022/10/28 03:23:32;;;;;;;16.33;9.97;;;;;;;;;;5063467;28;20176;-91
2022/10/28 03:25:58;;;;;;;17.97;10.50;;;;;;;;;;5062560;28;20186;-90
2022/10/28 03:28:24;;;;;;;17.97;10.90;;;;;;;;;;5042077;28;20176;-77
2022/10/28 03:30:50;;;;;;;15.80;10.40;;;;;;;;;;5055383;28;20186;-77
2022/10/28 03:33:16;;;;;;;19.13;10.90;;;;;;;;;;5040834;28;20195;-82
2022/10/28 03:35:42;;;;;;;15.17;10.77;;;;;;;;;;5053824;28;20191;-81
2022/10/28 03:38:08;;;;;;;17.93;11.43;;;;;;;;;;5025825;28;20190;-81
2022/10/28 03:40:34;;;;;;;18.63;11.07;;;;;;;;;;5055724;28;20302;-90
2022/10/28 03:43:00;;;;;;;17.80;10.63;;;;;;;;;;5057020;28;20191;-90
2022/10/28 03:45:26;;;;;;;17.50;10.50;;;;;;;;;;5081054;28;20188;-80
2022/10/28 03:47:52;;;;;;;16.90;10.57;;;;;;;;;;5039715;28;20176;-80
2022/10/28 03:50:18;;;;;;;14.53;10.50;;;;;;;;;;5029026;28;20194;-80
2022/10/28 03:52:45;;;;;;;18.60;11.20;;;;;;;;;;5054143;28;20213;-80
2022/10/28 03:55:11;;;;;;;20.67;10.77;;;;;;;;;;5051242;28;20271;-80
2022/10/28 03:57:37;;;;;;;20.83;11.10;;;;;;;;;;5053818;28;20233;-80
2022/10/28 04:00:04;;;;;;;19.60;11.40;;;;;;;;;;5053005;28;20211;-89
2022/10/28 04:02:30;;;;;;;19.13;10.60;;;;;;;;;;5040584;28;20248;-80
2022/10/28 04:04:56;;;;;;;20.00;10.73;;;;;;;;;;5040577;28;20204;-80
2022/10/28 04:07:22;;;;;;;17.37;10.97;;;;;;;;;;5077936;28;20283;-80
2022/10/28 04:09:50;;;;;;;23.63;12.00;;;;;;;;;;5059906;28;20230;-80
2022/10/28 04:12:16;;;;;;;16.63;11.07;;;;;;;;;;5038473;28;20190;-80
2022/10/28 04:14:42;;;;;;;23.15;13.82;;;;;;;;;;5053455;28;20472;-80
2022/10/28 04:17:08;;;;;;;23.27;12.07;;;;;;;;;;5065122;23;20254;-82
2022/10/28 04:19:34;;;;;;;19.63;11.50;;;;;;;;;;5066698;28;20290;-81
2022/10/28 04:22:00;;;;;;;17.70;11.27;;;;;;;;;;5071228;28;20225;-81
2022/10/28 04:24:26;;;;;;;19.17;11.47;;;;;;;;;;5075199;28;20199;-81
2022/10/28 04:26:52;;;;;;;19.60;11.63;;;;;;;;;;5065129;28;20184;-81
2022/10/28 04:29:18;;;;;;;16.50;11.27;;;;;;;;;;5073587;28;20206;-81
2022/10/28 04:31:44;;;;;;;15.57;11.40;;;;;;;;;;5088091;28;20183;-81
2022/10/28 04:34:10;;;;;;;20.63;11.50;;;;;;;;;;5056872;28;20180;-80
2022/10/28 04:36:36;;;;;;;18.23;11.10;;;;;;;;;;5059410;28;20171;-80
2022/10/28 04:39:02;;;;;;;16.23;11.13;;;;;;;;;;5091588;28;20244;-80
2022/10/28 04:41:28;;;;;;;15.30;10.80;;;;;;;;;;5089984;28;20193;-80
2022/10/28 04:43:55;;;;;;;18.13;11.07;;;;;;;;;;5078046;28;20214;-80
2022/10/28 04:46:21;;;;;;;19.17;10.83;;;;;;;;;;5079184;28;20183;-80
2022/10/28 04:48:47;;;;;;;20.50;10.83;;;;;;;;;;5097254;28;20171;-79
2022/10/28 04:51:14;;;;;;;19.80;11.60;;;;;;;;;;5070723;28;20196;-80
2022/10/28 04:53:40;;;;;;;20.47;11.67;;;;;;;;;;5094601;28;20190;-81
2022/10/28 04:56:06;;;;;;;18.13;11.87;;;;;;;;;;5073191;28;20193;-81
2022/10/28 04:58:32;;;;;;;19.50;13.77;;;;;;;;;;5072231;28;20178;-81
2022/10/28 05:00:58;;;;;;;21.07;12.07;;;;;;;;;;5070416;28;20236;-81
2022/10/28 05:03:24;;;;;;;16.93;11.03;;;;;;;;;;5086317;28;20228;-81
2022/10/28 05:05:50;;;;;;;19.10;11.10;;;;;;;;;;5083360;28;20187;-81
2022/10/28 05:08:16;;;;;;;17.83;11.70;;;;;;;;;;5067175;28;20255;-90
2022/10/28 05:10:42;;;;;;;16.97;11.33;;;;;;;;;;5073111;28;20202;-90
2022/10/28 05:13:08;;;;;;;18.43;11.00;;;;;;;;;;5082727;28;20186;-90
2022/10/28 05:15:34;;;;;;;19.00;10.60;;;;;;;;;;5083117;28;20178;-90
2022/10/28 05:18:00;;;;;;;17.40;10.73;;;;;;;;;;5099235;28;20321;-90
2022/10/28 05:20:26;;;;;;;16.33;10.30;;;;;;;;;;5100339;28;20256;-90
2022/10/28 05:22:54;;;;;;;17.33;10.53;;;;;;;;;;5063055;28;20177;-90
2022/10/28 05:25:21;;;;;;;20.23;9.63;;;;;;;;;;5085433;28;20259;-77
2022/10/28 05:27:47;;;;;;;17.93;10.47;;;;;;;;;;5082939;28;20172;-77
2022/10/28 05:30:13;;;;;;;18.23;10.98;;;;;;;;;;5084357;28;20443;-77
2022/10/28 05:32:39;;;;;;;13.77;9.53;;;;;;;;;;5078545;28;20186;-77
2022/10/28 05:35:06;;;;;;;14.10;9.77;;;;;;;;;;5095266;28;20214;-77
2022/10/28 05:37:32;;;;;;;15.10;9.57;;;;;;;;;;5079223;28;20178;-78
2022/10/28 05:39:58;;;;;;;13.97;9.30;;;;;;;;;;5095110;28;20206;-78
2022/10/28 05:42:24;;;;;;;20.17;9.83;;;;;;;;;;5078050;28;20228;-78
2022/10/28 05:44:50;;;;;;;17.60;8.70;;;;;;;;;;5067479;28;20202;-81
2022/10/28 05:47:16;;;;;;;20.80;9.10;;;;;;;;;;5055100;28;20179;-81
2022/10/28 05:49:42;;;;;;;21.90;9.13;;;;;;;;;;5061935;28;20185;-81
2022/10/28 05:52:08;;;;;;;20.57;9.23;;;;;;;;;;5076332;28;20193;-81
2022/10/28 05:54:34;;;;;;;19.07;9.67;;;;;;;;;;5058330;28;20194;-81
2022/10/28 05:57:00;;;;;;;16.60;11.00;;;;;;;;;;5083907;28;20421;-81
2022/10/28 05:59:26;;;;;;;19.17;9.87;;;;;;;;;;5094530;28;20213;-80
2022/10/28 06:01:52;;;;;;;14.70;8.90;;;;;;;;;;5069405;28;20178;-80
2022/10/28 06:04:18;;;;;;;17.00;9.53;;;;;;;;;;5057876;28;20190;-80
2022/10/28 06:06:44;;;;;;;17.53;8.33;;;;;;;;;;5090074;28;20240;-80
2022/10/28 06:09:10;;;;;;;19.53;9.87;;;;;;;;;;5066824;28;20193;-80
2022/10/28 06:11:36;;;;;;;18.30;9.33;;;;;;;;;;5069090;28;20198;-80
2022/10/28 06:14:02;;;;;;;13.67;9.07;;;;;;;;;;5085714;28;20210;-80
2022/10/28 06:16:28;;;;;;;23.50;13.60;;;;;;;;;;5078499;28;20233;-80
2022/10/28 06:18:54;;;;;;;20.37;9.33;;;;;;;;;;5079434;28;20226;-80
2022/10/28 06:21:20;;;;;;;14.10;9.23;;;;;;;;;;5056734;28;20203;-80
2022/10/28 06:23:47;;;;;;;16.50;8.60;;;;;;;;;;5054497;28;20176;-80
2022/10/28 06:26:13;;;;;;;15.33;8.93;;;;;;;;;;5065514;28;20186;-81
2022/10/28 06:28:39;;;;;;;15.43;8.07;;;;;;;;;;5070412;28;20427;-81
2022/10/28 06:31:06;;;;;;;17.50;9.65;;;;;;;;;;5069731;28;20416;-77
2022/10/28 06:33:32;;;;;;;16.37;9.30;;;;;;;;;;5073118;28;20179;-78
2022/10/28 06:35:58;;;;;;;14.93;8.90;;;;;;;;;;5041153;28;20180;-77
2022/10/28 06:38:25;;;;;;;16.80;8.93;;;;;;;;;;5054243;28;20193;-77
2022/10/28 06:40:51;;;;;;;21.27;8.63;;;;;;;;;;5072416;28;20202;-78
2022/10/28 06:43:17;;;;;;;16.50;8.50;;;;;;;;;;5080638;28;20183;-77
2022/10/28 06:45:45;;;;;;;14.70;8.90;;;;;;;;;;5073537;28;20261;-78
2022/10/28 06:48:12;;;;;;;20.50;9.00;;;;;;;;;;5057914;28;20180;-77
2022/10/28 06:50:38;;;;;;;16.43;9.00;;;;;;;;;;5065813;28;20211;-78
2022/10/28 06:53:04;;;;;;;14.33;8.87;;;;;;;;;;5053697;28;20250;-80
2022/10/28 06:55:30;;;;;;;16.23;8.97;;;;;;;;;;5054897;28;20208;-80
2022/10/28 06:58:00;;;;;;;16.40;8.70;;;;;;;;;;5053510;28;20222;-80
2022/10/28 07:00:27;;;;;;;16.97;8.47;;;;;;;;;;5053579;28;20269;-80
2022/10/28 07:02:53;;;;;;;16.33;9.13;;;;;;;;;;5086049;28;20176;-80
2022/10/28 07:05:20;;;;;;;16.00;8.57;;;;;;;;;;5090030;28;20171;-81
2022/10/28 07:07:46;;;;;;;18.07;8.57;;;;;;;;;;5072176;28;20190;-81
2022/10/28 07:10:12;;;;;;;20.17;9.33;;;;;;;;;;5073779;28;20273;-81
2022/10/28 07:12:38;;;;;;;15.93;8.97;;;;;;;;;;5074473;28;20254;-81
2022/10/28 07:15:04;;;;;;;18.30;8.70;;;;;;;;;;5073384;28;20213;-81
2022/10/28 07:17:30;;;;;;;18.27;8.60;;;;;;;;;;5053137;28;20234;-81
2022/10/28 07:19:56;;;;;;;16.83;8.70;;;;;;;;;;5070230;28;20212;-81
2022/10/28 07:22:22;;;;;;;16.27;8.60;;;;;;;;;;5087007;28;20208;-81
2022/10/28 07:24:48;;;;;;;16.17;8.17;;;;;;;;;;5095478;28;20270;-80
2022/10/28 07:27:14;;;;;;;16.50;8.43;;;;;;;;;;5059563;28;20180;-80
2022/10/28 07:29:40;;;;;;;15.93;8.77;;;;;;;;;;5072180;28;20188;-80
2022/10/28 07:32:06;;;;;;;18.43;8.93;;;;;;;;;;5073786;28;20230;-80
2022/10/28 07:34:32;;;;;;;17.60;8.07;;;;;;;;;;5068368;28;20184;-80
2022/10/28 07:36:58;;;;;;;15.57;8.10;;;;;;;;;;5070098;28;20188;-80
2022/10/28 07:39:24;;;;;;;16.57;8.10;;;;;;;;;;5069841;28;20188;-81
2022/10/28 07:41:50;;;;;;;17.77;8.00;;;;;;;;;;5057656;28;20183;-81
2022/10/28 07:44:16;;;;;;;19.97;8.00;;;;;;;;;;5054531;28;20187;-81
2022/10/28 07:46:42;;;;;;;14.43;7.67;;;;;;;;;;5052008;28;20179;-81
2022/10/28 07:49:08;;;;;;;19.57;8.20;;;;;;;;;;5065917;28;20186;-81
2022/10/28 07:51:34;;;;;;;23.17;8.20;;;;;;;;;;5074199;28;20179;-81
2022/10/28 07:54:00;;;;;;;15.70;7.80;;;;;;;;;;5052956;28;20195;-77
2022/10/28 07:56:26;;;;;;;17.93;7.80;;;;;;;;;;5053134;28;20221;-78
2022/10/28 07:58:52;;;;;;;18.93;7.47;;;;;;;;;;5060140;28;20190;-78
2022/10/28 08:01:19;;;;;;;16.87;7.50;;;;;;;;;;5072906;28;20257;-77
2022/10/28 08:03:46;;;;;;;20.30;7.90;;;;;;;;;;5071122;28;20281;-77
2022/10/28 08:06:16;;;;;;;15.70;7.60;;;;;;;;;;5058062;28;20187;-78
2022/10/28 08:08:43;;;;;;;15.27;7.63;;;;;;;;;;5089219;28;20174;-77
2022/10/28 08:11:13;;;;;;;16.70;7.53;;;;;;;;;;5093579;28;20178;-77
2022/10/28 08:13:39;;;;;;;17.53;7.80;;;;;;;;;;5093012;28;20182;-81
2022/10/28 08:16:06;;;;;;;19.70;7.47;;;;;;;;;;5076690;28;20182;-81
2022/10/28 08:18:32;;;;;;;14.83;7.00;;;;;;;;;;5076119;28;20234;-81
2022/10/28 08:20:59;;;;;;;17.97;7.00;;;;;;;;;;5068474;28;20207;-81
2022/10/28 08:23:25;;;;;;;17.23;7.27;;;;;;;;;;5053832;28;20178;-81
2022/10/28 08:25:51;;;;;;;13.97;7.23;;;;;;;;;;5053847;28;20176;-81
2022/10/28 08:28:18;;;;;;;12.57;6.30;;;;;;;;;;5073784;28;20179;-81
2022/10/28 08:30:45;;;;;;;16.17;6.70;;;;;;;;;;5072583;28;20190;-81
2022/10/28 08:33:11;;;;;;;17.30;6.97;;;;;;;;;;5068763;28;20184;-80
2022/10/28 08:35:37;;;;;;;16.97;6.67;;;;;;;;;;5073884;28;20186;-81
2022/10/28 08:38:04;;;;;;;17.40;6.97;;;;;;;;;;5055909;28;20176;-81
2022/10/28 08:40:52;;;;;;;19.50;7.00;;;;;;;;;;5073635;28;20256;-81
2022/10/28 08:43:25;;;;;;;15.97;6.50;;;;;;;;;;5065313;28;20191;-81
2022/10/28 08:46:14;;;;;;;14.10;7.20;;;;;;;;;;5054724;28;20190;-81
2022/10/28 08:48:41;;;;;;;18.37;6.60;;;;;;;;;;5050356;28;20261;-81
2022/10/28 08:51:30;;;;;;;14.67;7.07;;;;;;;;;;5052723;28;20180;-81
2022/10/28 08:54:00;;;;;;;14.63;6.70;;;;;;;;;;5048936;28;20404;-81
2022/10/28 08:56:36;;;;;;;17.63;7.25;;;;;;;;;;5066426;28;20400;-81
2022/10/28 08:59:05;;;;;;;17.40;6.50;;;;;;;;;;5106928;28;20274;-81
2022/10/28 09:01:43;;;;;;;13.10;6.72;;;;;;;;;;5075940;28;20449;-81
2022/10/28 09:04:26;;;;;;;18.58;6.80;;;;;;;;;;5079460;28;20426;-81
2022/10/28 09:06:52;;;;;;;16.97;7.00;;;;;;;;;;5066201;28;20422;-81
2022/10/28 09:09:20;;;;;;;15.05;6.47;;;;;;;;;;5076906;28;20485;-81
2022/10/28 09:11:49;;;;;;;15.07;6.33;;;;;;;;;;5075376;28;20394;-81
2022/10/28 09:14:48;;;;;;;15.38;6.80;;;;;;;;;;5073283;28;20507;-81
2022/10/28 09:17:21;;;;;;;15.18;6.43;;;;;;;;;;5063208;28;20454;-81
2022/10/28 09:19:51;;;;;;;17.48;6.78;;;;;;;;;;5077105;28;20438;-82
2022/10/28 09:22:24;;;;;;;17.42;6.28;;;;;;;;;;5096587;28;20428;-81
2022/10/28 09:25:01;;;;;;;11.67;5.50;;;;;;;;;;5096907;28;20178;-82
2022/10/28 09:27:33;;;;;;;14.17;6.07;;;;;;;;;;5096301;28;20174;-82
2022/10/28 09:29:59;;;;;;;14.83;5.47;;;;;;;;;;5096227;28;20171;-82
2022/10/28 09:32:31;;;;;;;16.52;5.88;;;;;;;;;;5096678;28;20412;-82
2022/10/28 09:34:59;;;;;;;15.43;5.83;;;;;;;;;;5093452;28;20219;-82
2022/10/28 09:38:03;;;;;;;12.00;5.67;;;;;;;;;;5089073;28;20209;-82
2022/10/28 09:40:32;;;;;;;16.50;6.03;;;;;;;;;;5037716;28;20215;-82
2022/10/28 09:43:12;;;;;;;13.40;5.80;;;;;;;;;;5054527;28;20263;-82
2022/10/28 09:45:42;;;;;;;12.37;6.10;;;;;;;;;;5079366;28;20204;-82
2022/10/28 09:48:14;;;;;;;18.40;6.67;;;;;;;;;;5096685;28;20224;-82
2022/10/28 09:50:40;;;;;;;15.40;6.23;;;;;;;;;;5095322;28;20201;-90
2022/10/28 09:53:25;;;;;;;15.20;6.63;;;;;;;;;;5078664;28;20182;-91
2022/10/28 09:55:51;;;;;;;14.33;6.13;;;;;;;;;;5095336;28;20186;-91
2022/10/28 09:58:17;;;;;;;17.87;6.40;;;;;;;;;;5096392;28;20179;-91
2022/10/28 10:00:43;;;;;;;16.43;6.67;;;;;;;;;;5078265;28;20237;-89
2022/10/28 10:03:10;;;;;;;12.97;6.10;;;;;;;;;;5096582;28;20171;-91
2022/10/28 10:05:42;;;;;;;15.93;6.20;;;;;;;;;;5095055;28;20178;-91
2022/10/28 10:08:12;;;;;;;14.83;6.40;;;;;;;;;;5096588;28;20174;-91
2022/10/28 10:10:44;;;;;;;15.77;7.03;;;;;;;;;;5094365;28;20473;-91
2022/10/28 10:13:12;;;;;;;15.00;6.67;;;;;;;;;;5096083;28;20179;-81
2022/10/28 10:15:40;;;;;;;12.83;6.67;;;;;;;;;;5078535;28;20246;-81
2022/10/28 10:18:11;;;;;;;19.03;7.63;;;;;;;;;;5074464;28;20227;-81
2022/10/28 10:20:59;;;;;;;17.80;7.00;;;;;;;;;;5075725;28;20214;-81
2022/10/28 10:23:36;;;;;;;17.47;6.37;;;;;;;;;;5066752;28;20188;-81
2022/10/28 10:26:02;;;;;;;15.37;6.90;;;;;;;;;;5054594;28;20188;-82
2022/10/28 10:28:28;;;;;;;18.87;7.13;;;;;;;;;;5054490;28;20171;-82
2022/10/28 10:30:56;;;;;;;20.60;7.17;;;;;;;;;;5064994;28;20187;-82
2022/10/28 10:33:24;;;;;;;15.63;6.77;;;;;;;;;;5064156;28;20197;-82
2022/10/28 10:35:55;;;;;;;15.07;6.30;;;;;;;;;;5073324;28;20188;-82
2022/10/28 10:38:21;;;;;;;14.03;6.70;;;;;;;;;;5055458;28;20184;-82
2022/10/28 10:40:51;;;;;;;15.93;7.07;;;;;;;;;;5071965;28;20214;-79
2022/10/28 10:43:17;;;;;;;19.27;6.80;;;;;;;;;;5086601;28;20250;-79
2022/10/28 10:45:59;;;;;;;15.23;6.73;;;;;;;;;;5074892;28;20214;-81
2022/10/28 10:48:25;;;;;;;12.35;6.03;;;;;;;;;;5075045;28;20178;-81
2022/10/28 10:50:52;;;;;;;18.85;6.78;;;;;;;;;;5076389;28;20267;-81
2022/10/28 10:53:23;;;;;;;11.18;6.90;;;;;;;;;;5085537;28;20187;-81
2022/10/28 10:56:00;;;;;;;15.77;6.47;;;;;;;;;;5075808;28;20186;-81
2022/10/28 10:58:28;;;;;;;21.88;6.50;;;;;;;;;;5074211;28;20178;-78
2022/10/28 11:00:55;;;;;;;13.30;6.18;;;;;;;;;;5073818;28;20207;-78
2022/10/28 11:03:26;;;;;;;16.35;6.80;;;;;;;;;;5073936;28;20176;-78
2022/10/28 11:05:54;;;;;;;14.13;6.22;;;;;;;;;;5073558;28;20179;-79
2022/10/28 11:08:23;;;;;;;16.50;6.20;;;;;;;;;;5073531;28;20281;-79
2022/10/28 11:11:02;;;;;;;21.73;6.78;;;;;;;;;;5073183;28;20191;-78
2022/10/28 11:13:30;;;;;;;13.48;6.28;;;;;;;;;;5068563;28;20223;-78
2022/10/28 11:16:06;;;;;;;14.75;6.50;;;;;;;;;;5055382;28;20191;-79
2022/10/28 11:18:52;;;;;;;14.18;6.35;;;;;;;;;;5094276;28;20219;-79
2022/10/28 11:21:18;;;;;;;18.70;6.20;;;;;;;;;;5069309;28;20218;-78
2022/10/28 11:24:04;;;;;;;18.85;6.25;;;;;;;;;;5074501;28;20167;-79
2022/10/28 11:26:33;;;;;;;13.85;6.05;;;;;;;;;;5059074;28;20191;-78
2022/10/28 11:29:06;;;;;;;14.15;6.20;;;;;;;;;;5079400;28;20171;-78
2022/10/28 11:31:50;;;;;;;15.40;5.97;;;;;;;;;;5065019;28;20266;-84
2022/10/28 11:34:35;;;;;;;19.05;5.55;;;;;;;;;;5056660;28;20214;-84
2022/10/28 11:37:13;;;;;;;15.27;6.13;;;;;;;;;;5062265;28;20187;-84
2022/10/28 11:39:45;;;;;;;16.15;6.00;;;;;;;;;;5074245;28;20183;-83
2022/10/28 11:42:14;;;;;;;17.57;5.33;;;;;;;;;;5078802;28;20184;-83
2022/10/28 11:44:46;;;;;;;13.45;5.50;;;;;;;;;;5054246;28;20179;-84
2022/10/28 11:47:12;;;;;;;18.83;5.97;;;;;;;;;;5084433;28;20257;-90
2022/10/28 11:50:00;;;;;;;18.70;6.20;;;;;;;;;;5093485;28;20205;-90
2022/10/28 11:52:32;;;;;;;18.58;5.70;;;;;;;;;;5087941;28;20176;-92
2022/10/28 11:55:01;;;;;;;16.33;5.53;;;;;;;;;;5054341;28;20268;-90
2022/10/28 11:57:37;;;;;;;12.90;5.70;;;;;;;;;;5073120;28;20175;-90
2022/10/28 12:00:14;;;;;;;22.57;5.37;;;;;;;;;;5072895;28;20234;-91
2022/10/28 12:02:59;;;;;;;17.45;5.75;;;;;;;;;;5073203;28;20174;-90
2022/10/28 12:05:31;;;;;;;15.63;6.07;;;;;;;;;;5072959;28;20276;-78
2022/10/28 12:08:00;;;;;;;13.13;5.60;;;;;;;;;;5069265;28;20237;-78
2022/10/28 12:10:46;;;;;;;21.42;5.72;;;;;;;;;;5058403;28;20180;-78
2022/10/28 12:13:18;;;;;;;16.92;5.60;;;;;;;;;;5053580;28;20191;-78
2022/10/28 12:15:43;;;;;;;13.60;5.57;;;;;;;;;;5094319;22;20285;-81
2022/10/28 12:18:17;;;;;;;11.73;5.63;;;;;;;;;;5033915;28;20188;-80
2022/10/28 12:20:57;;;;;;;12.48;5.18;;;;;;;;;;5053832;28;20199;-81
2022/10/28 12:23:24;;;;;;;15.18;5.28;;;;;;;;;;5053564;28;20175;-80
2022/10/28 12:25:53;;;;;;;17.00;5.85;;;;;;;;;;5019996;28;20184;-81
2022/10/28 12:28:22;;;;;;;18.40;5.32;;;;;;;;;;5017517;28;20178;-80
2022/10/28 12:30:49;;;;;;;12.82;5.22;;;;;;;;;;5020243;28;20183;-80
2022/10/28 12:33:18;;;;;;;19.38;6.35;;;;;;;;;;5023277;28;20427;-81
2022/10/28 12:35:55;;;;;;;12.75;5.60;;;;;;;;;;5039665;28;20184;-81
2022/10/28 12:38:40;;;;;;;14.45;5.40;;;;;;;;;;5047214;28;20246;-90
2022/10/28 12:41:16;;;;;;;16.80;6.00;;;;;;;;;;5021823;28;20517;-90
2022/10/28 12:43:49;;;;;;;14.55;5.85;;;;;;;;;;5039899;28;20215;-90
2022/10/28 12:46:28;;;;;;;30.27;6.05;;;;;;;;;;5039646;28;20271;-90
2022/10/28 12:49:01;;;;;;;14.18;5.32;;;;;;;;;;5039846;28;20232;-90
2022/10/28 12:51:34;;;;;;;15.10;5.40;;;;;;;;;;5030627;28;20283;-90
2022/10/28 12:54:00;;;;;;;16.38;5.20;;;;;;;;;;5039290;28;20592;-78
2022/10/28 12:56:29;;;;;;;14.38;5.38;;;;;;;;;;5055573;28;20233;-78
2022/10/28 12:59:03;;;;;;;13.57;5.50;;;;;;;;;;5037129;28;20176;-78
2022/10/28 13:01:30;;;;;;;15.05;4.97;;;;;;;;;;5021014;28;20208;-78
2022/10/28 13:03:56;;;;;;;16.65;5.60;;;;;;;;;;5026992;28;20245;-78
2022/10/28 13:06:38;;;;;;;17.38;4.97;;;;;;;;;;5038763;28;20190;-78
2022/10/28 13:09:07;;;;;;;15.60;5.15;;;;;;;;;;5052706;28;20208;-78
2022/10/28 13:11:36;;;;;;;16.25;5.45;;;;;;;;;;5037110;28;20172;-78
2022/10/28 13:14:08;;;;;;;15.82;5.22;;;;;;;;;;5053003;28;20269;-78
2022/10/28 13:16:52;;;;;;;14.82;5.03;;;;;;;;;;5059014;28;20232;-78
2022/10/28 13:19:28;;;;;;;12.95;5.43;;;;;;;;;;5036078;28;20172;-78
2022/10/28 13:21:54;;;;;;;15.15;5.32;;;;;;;;;;5035645;28;20275;-78
2022/10/28 13:24:25;;;;;;;19.13;5.20;;;;;;;;;;5036589;28;20200;-78
2022/10/28 13:26:51;;;;;;;15.65;5.60;;;;;;;;;;5036626;28;20177;-78
2022/10/28 13:29:25;;;;;;;16.58;6.03;;;;;;;;;;5026647;28;20218;-78
2022/10/28 13:31:51;;;;;;;18.77;6.35;;;;;;;;;;5054939;28;20411;-77
2022/10/28 13:34:19;;;;;;;17.73;5.82;;;;;;;;;;5056548;28;20172;-78
2022/10/28 13:36:56;;;;;;;17.13;4.97;;;;;;;;;;5056083;28;20183;-77
2022/10/28 13:39:23;;;;;;;16.10;5.25;;;;;;;;;;5055046;28;20245;-78
2022/10/28 13:42:09;;;;;;;19.05;5.40;;;;;;;;;;5056299;28;20207;-77
2022/10/28 13:44:49;;;;;;;15.25;5.30;;;;;;;;;;5035723;28;20185;-91
2022/10/28 13:47:21;;;;;;;12.15;4.88;;;;;;;;;;5035552;28;20271;-91
2022/10/28 13:50:08;;;;;;;14.70;5.87;;;;;;;;;;5036672;28;20173;-90
2022/10/28 13:52:44;;;;;;;14.90;5.22;;;;;;;;;;5039537;28;20171;-90
2022/10/28 13:55:13;;;;;;;15.38;5.72;;;;;;;;;;5055605;28;20190;-77
2022/10/28 13:57:41;;;;;;;18.93;5.30;;;;;;;;;;5054212;28;20196;-78
2022/10/28 14:00:10;;;;;;;16.07;5.17;;;;;;;;;;5055947;28;20218;-78
2022/10/28 14:02:38;;;;;;;16.98;5.20;;;;;;;;;;5053444;28;20179;-82
2022/10/28 14:05:06;;;;;;;17.38;5.80;;;;;;;;;;5035360;28;20413;-82
2022/10/28 14:07:33;;;;;;;13.00;5.05;;;;;;;;;;5043885;28;20212;-82
2022/10/28 14:10:11;;;;;;;18.58;5.38;;;;;;;;;;5054734;28;20249;-83
2022/10/28 14:12:40;;;;;;;11.73;4.90;;;;;;;;;;5054598;28;20187;-82
2022/10/28 14:15:09;;;;;;;13.48;5.03;;;;;;;;;;5054632;28;20272;-82
2022/10/28 14:17:39;;;;;;;14.95;5.53;;;;;;;;;;5062917;28;20239;-81
2022/10/28 14:20:26;;;;;;;18.30;5.23;;;;;;;;;;5053835;28;20245;-81
2022/10/28 14:22:53;;;;;;;18.77;5.67;;;;;;;;;;5042016;28;20184;-81
2022/10/28 14:25:37;;;;;;;15.00;5.33;;;;;;;;;;5024559;28;20176;-80
2022/10/28 14:28:23;;;;;;;14.57;5.00;;;;;;;;;;5027905;28;20187;-80
2022/10/28 14:31:08;;;;;;;16.63;5.33;;;;;;;;;;5054675;28;20192;-80
2022/10/28 14:33:35;;;;;;;16.97;5.63;;;;;;;;;;5055115;28;20255;-80
2022/10/28 14:36:19;;;;;;;18.27;5.80;;;;;;;;;;5029629;28;20188;-81
2022/10/28 14:38:57;;;;;;;18.03;5.47;;;;;;;;;;5040233;28;20210;-80
2022/10/28 14:41:29;;;;;;;15.60;5.53;;;;;;;;;;5024738;28;20229;-80